Time;durP1;ratioP1;P1;durP2;ratioP2;P2;SDS_P1;SDS_P2;PMS_P1;PMS_P2;Temp;Humidity;BMP_temperature;BMP_pressure;BME280_temperature;BME280_humidity;BME280_pressure;Samples;Min_cycle;Max_cycle;Signal;HPM_P1;HPM_P2
2022/12/21 00:01:26;;;;;;;0.00;0.00;;;;;;;8.17;62.21;99367.88;7361161;19;20591;-62
2022/12/21 00:04:02;;;;;;;0.05;0.05;;;;;;;8.17;62.10;99367.88;7355871;19;20647;-59
2022/12/21 00:06:31;;;;;;;0.00;0.00;;;;;;;8.16;61.95;99371.34;7361755;19;20021;-60
2022/12/21 00:08:59;;;;;;;0.10;0.10;;;;;;;8.16;62.30;99376.53;7348365;19;20848;-59
2022/12/21 00:11:25;;;;;;;;;;;;;;;8.06;62.22;99348.28;7361194;19;20014;-60
2022/12/21 00:13:52;;;;;;;0.00;0.00;;;;;;;8.14;61.87;99370.56;7360902;19;19917;-60
2022/12/21 00:16:21;;;;;;;0.10;0.10;;;;;;;8.11;62.54;99355.06;7360189;19;20848;-60
2022/12/21 00:18:47;;;;;;;0.00;0.00;;;;;;;8.10;62.55;99356.81;7352861;19;20002;-59
2022/12/21 00:21:16;;;;;;;0.00;0.00;;;;;;;8.04;62.59;99346.63;7361422;19;20043;-58
2022/12/21 00:23:43;;;;;;;0.10;0.10;;;;;;;8.07;62.68;99354.34;7356970;19;20769;-59
2022/12/21 00:26:09;;;;;;;0.00;0.00;;;;;;;7.97;62.59;99338.19;7359173;19;20007;-60
2022/12/21 00:28:34;;;;;;;0.00;0.00;;;;;;;8.05;62.74;99346.56;7362522;19;20007;-59
2022/12/21 00:31:15;;;;;;;0.00;0.00;;;;;;;8.07;62.34;99346.53;7357666;19;20493;-60
2022/12/21 00:33:42;;;;;;;0.00;0.00;;;;;;;8.04;62.90;99331.88;7362150;19;20030;-59
2022/12/21 00:36:10;;;;;;;0.10;0.10;;;;;;;8.05;62.68;99323.16;7350874;19;20046;-59
2022/12/21 00:38:36;;;;;;;0.10;0.10;;;;;;;8.04;62.81;99316.28;7357696;19;20557;-59
2022/12/21 00:41:05;;;;;;;0.00;0.00;;;;;;;8.06;62.43;99309.28;7357692;19;20090;-59
2022/12/21 00:43:32;;;;;;;0.00;0.00;;;;;;;8.05;62.42;99307.56;7357469;19;20034;-59
2022/12/21 00:45:58;;;;;;;0.10;0.10;;;;;;;8.06;62.28;99314.50;7358288;19;20026;-59
2022/12/21 00:48:25;;;;;;;0.00;0.00;;;;;;;8.05;62.59;99306.72;7359303;19;20098;-59
2022/12/21 00:50:51;;;;;;;0.00;0.00;;;;;;;8.03;62.38;99324.97;7359221;19;20006;-59
2022/12/21 00:53:17;;;;;;;0.10;0.10;;;;;;;8.02;62.54;99323.28;7362222;19;20038;-59
2022/12/21 00:55:55;;;;;;;0.00;0.00;;;;;;;7.87;62.38;99292.63;7359974;19;25570;-59
2022/12/21 00:58:21;;;;;;;0.00;0.00;;;;;;;8.00;62.26;99317.28;7359046;19;20737;-60
2022/12/21 01:00:47;;;;;;;0.10;0.10;;;;;;;8.02;62.42;99323.28;7360515;19;20049;-60
2022/12/21 01:03:13;;;;;;;0.00;0.00;;;;;;;8.04;62.14;99321.47;7360413;19;20014;-60
2022/12/21 01:05:38;;;;;;;0.10;0.10;;;;;;;8.02;62.54;99310.28;7361316;19;22695;-60
2022/12/21 01:08:04;;;;;;;0.10;0.10;;;;;;;8.02;62.36;99318.09;7356340;19;20661;-59
2022/12/21 01:10:29;;;;;;;0.10;0.10;;;;;;;8.00;62.40;99299.06;7361911;19;20010;-59
2022/12/21 01:12:55;;;;;;;0.10;0.10;;;;;;;8.01;62.48;99306.00;7357419;19;20010;-59
2022/12/21 01:15:20;;;;;;;0.00;0.00;;;;;;;8.03;62.41;99311.97;7361276;19;20006;-60
2022/12/21 01:17:47;;;;;;;0.10;0.10;;;;;;;8.03;62.20;99293.78;7356795;19;20007;-58
2022/12/21 01:20:13;;;;;;;0.10;0.10;;;;;;;8.04;61.81;99300.66;7361971;19;20608;-58
2022/12/21 01:22:38;;;;;;;0.10;0.10;;;;;;;8.04;62.19;99298.06;7357158;19;20007;-59
2022/12/21 01:25:04;;;;;;;0.10;0.10;;;;;;;8.04;62.04;99305.88;7360986;19;20037;-59
2022/12/21 01:27:29;;;;;;;0.10;0.10;;;;;;;8.05;62.07;99312.75;7356832;19;20608;-60
2022/12/21 01:29:55;;;;;;;0.05;0.05;;;;;;;8.02;62.19;99291.25;7361084;19;20702;-59
2022/12/21 01:32:20;;;;;;;0.00;0.00;;;;;;;8.01;61.71;99295.59;7357712;19;20014;-59
2022/12/21 01:34:46;;;;;;;0.03;0.03;;;;;;;7.91;61.79;99283.81;7360921;19;20018;-59
2022/12/21 01:37:11;;;;;;;0.10;0.10;;;;;;;7.89;61.86;99262.22;7358960;19;20014;-59
2022/12/21 01:39:36;;;;;;;0.10;0.10;;;;;;;8.01;61.85;99294.75;7360530;19;20007;-60
2022/12/21 01:42:02;;;;;;;0.00;0.00;;;;;;;8.00;61.63;99301.69;7358290;19;20053;-59
2022/12/21 01:44:46;;;;;;;0.05;0.05;;;;;;;8.01;61.67;99294.75;7358865;19;20470;-59
2022/12/21 01:47:21;;;;;;;0.00;0.00;;;;;;;7.98;61.61;99298.28;7358116;19;20447;-59
2022/12/21 01:50:25;;;;;;;0.10;0.10;;;;;;;7.96;61.81;99297.50;7358637;19;20768;-59
2022/12/21 01:52:52;;;;;;;0.00;0.00;;;;;;;7.93;61.63;99323.59;7256385;19;2004443;-59
2022/12/21 01:55:17;;;;;;;0.00;0.00;;;;;;;7.79;61.55;99268.63;7358937;19;20022;-59
2022/12/21 01:57:44;;;;;;;0.03;0.03;;;;;;;7.88;61.99;99285.66;7357111;19;20022;-59
2022/12/21 02:00:10;;;;;;;0.00;0.00;;;;;;;7.76;62.08;99266.16;7358092;19;20576;-59
2022/12/21 02:02:46;;;;;;;0.10;0.10;;;;;;;7.85;62.20;99273.63;7364532;19;20022;-59
2022/12/21 02:05:28;;;;;;;0.10;0.10;;;;;;;7.82;61.98;99271.13;7364018;19;20561;-60
2022/12/21 02:07:58;;;;;;;0.00;0.00;;;;;;;7.80;62.11;99270.31;7364358;19;20617;-59
2022/12/21 02:10:24;;;;;;;0.00;0.00;;;;;;;7.76;62.06;99274.81;7362991;19;20003;-59
2022/12/21 02:12:54;;;;;;;0.00;0.00;;;;;;;7.74;61.98;99281.78;7365721;19;20022;-59
2022/12/21 02:15:26;;;;;;;0.00;0.00;;;;;;;7.71;62.20;99273.25;7363597;19;20006;-60
2022/12/21 02:18:02;;;;;;;0.10;0.10;;;;;;;7.65;62.43;99263.06;7364030;19;20494;-60
2022/12/21 02:20:53;;;;;;;0.10;0.10;;;;;;;7.67;62.37;99274.25;7366059;19;20006;-60
2022/12/21 02:23:52;;;;;;;0.10;0.10;;;;;;;7.67;62.07;99248.28;7263173;19;2004438;-60
2022/12/21 02:26:36;;;;;;;0.10;0.10;;;;;;;7.64;62.63;99248.38;7265704;19;2005548;-59
2022/12/21 02:29:04;;;;;;;0.10;0.10;;;;;;;7.60;62.32;99247.63;7366627;19;20044;-59
2022/12/21 02:31:32;;;;;;;0.10;0.10;;;;;;;7.60;62.65;99249.38;7367299;19;20091;-59
2022/12/21 02:34:31;;;;;;;0.05;0.05;;;;;;;7.58;62.91;99248.59;7366402;19;20022;-59
2022/12/21 02:37:37;;;;;;;0.00;0.00;;;;;;;7.54;62.47;99247.84;7262113;19;2004423;-60
2022/12/21 02:40:18;;;;;;;0.10;0.10;;;;;;;7.51;62.87;99235.81;7264794;19;2004215;-59
2022/12/21 02:45:59;;;;;;;0.10;0.10;;;;;;;7.45;63.04;99243.81;7264283;19;2004638;-59
2022/12/21 02:48:25;;;;;;;0.10;0.10;;;;;;;7.44;63.24;99234.28;7264699;19;2004726;-59
2022/12/21 02:50:55;;;;;;;0.00;0.00;;;;;;;7.41;63.01;99231.81;7364787;19;20030;-59
2022/12/21 02:53:36;;;;;;;0.00;0.00;;;;;;;7.39;63.51;99227.56;7362679;19;20021;-60
2022/12/21 02:56:01;;;;;;;0.10;0.10;;;;;;;7.36;63.06;99233.72;7365821;19;20006;-60
2022/12/21 02:58:27;;;;;;;0.00;0.00;;;;;;;7.35;63.09;99225.97;7358395;19;20026;-59
2022/12/21 03:00:52;;;;;;;0.10;0.10;;;;;;;7.34;63.52;99240.69;7363683;19;20045;-59
2022/12/21 03:03:48;;;;;;;0.00;0.00;;;;;;;7.33;63.53;99230.38;7364113;19;20409;-59
2022/12/21 03:06:29;;;;;;;0.10;0.10;;;;;;;7.30;63.38;99223.53;7261552;19;2004272;-60
2022/12/21 03:09:19;;;;;;;0.00;0.00;;;;;;;7.27;63.59;99219.28;7363919;19;20009;-59
2022/12/21 03:12:11;;;;;;;0.10;0.10;;;;;;;7.26;63.53;99224.53;7364939;19;20624;-59
2022/12/21 03:14:55;;;;;;;0.00;0.00;;;;;;;7.24;63.63;99218.53;7259949;19;2004745;-59
2022/12/21 03:17:37;;;;;;;0.00;0.00;;;;;;;7.23;63.55;99216.84;7364758;19;20688;-59
2022/12/21 03:20:25;;;;;;;0.00;0.00;;;;;;;7.23;63.29;99206.44;7362924;19;20650;-58
2022/12/21 03:23:13;;;;;;;0.00;0.00;;;;;;;7.21;63.30;99214.31;7362153;19;20577;-59
2022/12/21 03:25:44;;;;;;;0.10;0.10;;;;;;;7.17;63.55;99212.69;7363723;19;20470;-59
2022/12/21 03:28:15;;;;;;;0.03;0.03;;;;;;;7.18;63.45;99208.34;7359083;19;20010;-60
2022/12/21 03:30:48;;;;;;;0.00;0.00;;;;;;;7.20;63.26;99209.16;7364113;19;21053;-59
2022/12/21 03:33:19;;;;;;;0.10;0.10;;;;;;;7.10;63.23;99189.59;7364174;19;20035;-59
2022/12/21 03:35:44;;;;;;;0.10;0.10;;;;;;;7.19;63.44;99204.84;7364346;19;20035;-59
2022/12/21 03:38:18;;;;;;;0.10;0.10;;;;;;;7.10;63.27;99179.22;7361171;19;20556;-59
2022/12/21 03:40:46;;;;;;;0.00;0.00;;;;;;;7.20;63.09;99199.63;7364875;19;20561;-59
2022/12/21 03:43:20;;;;;;;0.10;0.10;;;;;;;7.20;63.16;99201.38;7356430;19;20039;-59
2022/12/21 03:45:50;;;;;;;0.00;0.00;;;;;;;7.20;63.28;99188.41;7365350;19;20346;-59
2022/12/21 03:48:39;;;;;;;0.10;0.10;;;;;;;7.23;62.96;99196.06;7360981;19;20030;-59
2022/12/21 03:51:13;;;;;;;0.00;0.00;;;;;;;7.24;62.94;99195.16;7361461;19;20031;-60
2022/12/21 03:53:49;;;;;;;0.10;0.10;;;;;;;7.23;63.24;99186.53;7364435;19;20014;-59
2022/12/21 03:56:28;;;;;;;0.00;0.00;;;;;;;7.13;63.01;99168.72;7360427;19;20011;-59
2022/12/21 03:58:54;;;;;;;0.10;0.10;;;;;;;7.25;62.78;99174.38;7362244;19;20031;-59
2022/12/21 04:01:36;;;;;;;0.00;0.00;;;;;;;7.18;63.48;99165.06;7362261;19;20022;-59
2022/12/21 04:04:13;;;;;;;0.00;0.00;;;;;;;7.26;62.96;99186.44;7357390;19;20019;-59
2022/12/21 04:06:41;;;;;;;0.00;0.00;;;;;;;7.27;62.94;99182.09;7360388;19;20032;-60
2022/12/21 04:09:07;;;;;;;0.10;0.10;;;;;;;7.26;63.22;99195.97;7361857;19;20014;-59
2022/12/21 04:14:19;;;;;;;0.10;0.10;;;;;;;7.25;63.17;99173.53;7363817;19;20015;-59
2022/12/21 04:16:44;;;;;;;0.10;0.10;;;;;;;7.25;63.12;99176.13;7360798;19;20126;-59
2022/12/21 04:21:53;;;;;;;0.10;0.10;;;;;;;7.27;63.24;99172.56;7348382;19;20042;-59
2022/12/21 04:29:47;;;;;;;0.00;0.00;;;;;;;7.28;63.09;99165.59;7363184;19;20358;-60
2022/12/21 04:32:12;;;;;;;0.00;0.00;;;;;;;7.28;63.36;99192.41;7361747;19;20022;-59
2022/12/21 04:34:38;;;;;;;0.10;0.10;;;;;;;7.29;63.25;99180.28;7362908;19;20041;-60
2022/12/21 04:39:47;;;;;;;0.00;0.00;;;;;;;7.30;63.38;99176.81;7364030;19;20546;-59
2022/12/21 04:42:12;;;;;;;0.00;0.00;;;;;;;7.28;63.25;99176.84;7359230;19;25622;-60
2022/12/21 04:44:38;;;;;;;0.10;0.10;;;;;;;7.26;63.45;99150.09;7362843;19;20011;-59
2022/12/21 04:47:03;;;;;;;0.00;0.00;;;;;;;7.29;63.66;99165.53;7364991;19;22111;-59
2022/12/21 04:49:29;;;;;;;0.00;0.00;;;;;;;7.29;63.36;99194.09;7362699;19;20010;-59
2022/12/21 04:51:54;;;;;;;0.00;0.00;;;;;;;7.31;63.59;99173.31;7365091;19;20010;-59
2022/12/21 04:54:19;;;;;;;0.10;0.10;;;;;;;7.31;63.29;99183.69;7361228;19;20721;-59
2022/12/21 04:56:45;;;;;;;0.00;0.00;;;;;;;7.32;63.30;99180.19;7357094;19;20014;-60
2022/12/21 04:59:10;;;;;;;0.00;0.00;;;;;;;7.32;63.76;99158.56;7362875;19;20579;-59
2022/12/21 05:01:36;;;;;;;0.10;0.10;;;;;;;7.20;63.92;99158.09;7360421;19;20014;-59
2022/12/21 05:04:01;;;;;;;0.00;0.00;;;;;;;7.33;63.44;99181.03;7360692;19;21037;-59
2022/12/21 05:06:27;;;;;;;0.00;0.00;;;;;;;7.32;63.76;99175.00;7361322;19;20015;-59
2022/12/21 05:08:52;;;;;;;0.00;0.00;;;;;;;7.33;63.74;99168.06;7364236;19;20047;-59
2022/12/21 05:11:23;;;;;;;0.00;0.00;;;;;;;7.30;63.69;99166.44;7363217;19;20045;-59
2022/12/21 05:13:50;;;;;;;0.00;0.00;;;;;;;7.32;63.65;99162.00;7362094;19;20074;-59
2022/12/21 05:16:22;;;;;;;0.07;0.07;;;;;;;7.33;63.78;99166.31;7361573;19;20022;-59
2022/12/21 05:18:48;;;;;;;0.10;0.10;;;;;;;7.36;63.72;99166.22;7362510;19;20425;-59
2022/12/21 05:21:14;;;;;;;0.00;0.00;;;;;;;7.35;64.11;99141.16;7359975;19;20015;-60
2022/12/21 05:23:40;;;;;;;0.00;0.00;;;;;;;7.36;63.80;99176.59;7361018;19;20017;-60
2022/12/21 05:26:07;;;;;;;0.00;0.00;;;;;;;7.35;64.04;99156.72;7362503;19;20011;-59
2022/12/21 05:28:33;;;;;;;0.10;0.10;;;;;;;7.36;63.65;99135.03;7361503;19;21183;-59
2022/12/21 05:30:58;;;;;;;0.00;0.00;;;;;;;7.34;63.95;99157.59;7360992;19;20007;-59
2022/12/21 05:33:24;;;;;;;0.00;0.00;;;;;;;7.34;63.89;99152.41;7360907;19;20010;-59
2022/12/21 05:35:49;;;;;;;0.00;0.00;;;;;;;7.34;63.99;99148.97;7359368;19;20017;-59
2022/12/21 05:38:15;;;;;;;0.00;0.00;;;;;;;7.34;64.03;99136.81;7362468;19;20018;-58
2022/12/21 05:40:48;;;;;;;0.05;0.05;;;;;;;7.35;64.03;99135.94;7361787;19;20516;-58
2022/12/21 05:43:14;;;;;;;0.00;0.00;;;;;;;7.28;63.62;99137.03;7362644;19;20717;-59
2022/12/21 05:45:39;;;;;;;0.05;0.05;;;;;;;7.32;63.74;99171.56;7361630;19;20092;-59
2022/12/21 05:48:05;;;;;;;0.10;0.10;;;;;;;7.32;63.89;99120.47;7359301;19;20093;-59
2022/12/21 05:50:30;;;;;;;0.00;0.00;;;;;;;7.33;64.07;99127.34;7360994;19;20449;-58
2022/12/21 05:52:56;;;;;;;0.10;0.10;;;;;;;7.33;64.05;99160.25;7361193;19;20643;-59
2022/12/21 05:55:21;;;;;;;0.00;0.00;;;;;;;7.31;64.09;99136.94;7360582;19;20017;-59
2022/12/21 05:57:46;;;;;;;0.03;0.03;;;;;;;7.32;63.99;99155.97;7360086;19;20041;-59
2022/12/21 06:00:12;;;;;;;0.10;0.10;;;;;;;7.33;64.10;99134.28;7359353;19;20010;-59
2022/12/21 06:02:38;;;;;;;0.08;0.08;;;;;;;7.31;63.91;99131.75;7360407;19;20015;-59
2022/12/21 06:05:03;;;;;;;0.03;0.03;;;;;;;7.29;63.78;99149.97;7360958;19;20377;-59
2022/12/21 06:07:29;;;;;;;0.00;0.00;;;;;;;7.29;63.79;99117.97;7360009;19;20053;-59
2022/12/21 06:09:54;;;;;;;0.08;0.08;;;;;;;7.31;64.13;99136.09;7361473;19;20059;-60
2022/12/21 06:12:20;;;;;;;0.00;0.00;;;;;;;7.26;63.96;99124.13;7361068;19;20563;-59
2022/12/21 06:14:45;;;;;;;0.10;0.10;;;;;;;7.28;64.05;99131.84;7362349;19;20013;-59
2022/12/21 06:17:11;;;;;;;0.10;0.10;;;;;;;7.29;63.85;99124.00;7356030;19;20490;-60
2022/12/21 06:19:36;;;;;;;0.10;0.10;;;;;;;7.30;63.95;99114.50;7360500;19;20014;-59
2022/12/21 06:22:01;;;;;;;0.03;0.03;;;;;;;7.22;63.93;99111.31;7361100;19;20062;-59
2022/12/21 06:24:27;;;;;;;0.00;0.00;;;;;;;7.32;64.24;99127.41;7359868;19;20710;-57
2022/12/21 06:26:52;;;;;;;0.10;0.10;;;;;;;7.29;64.03;99142.19;7360278;19;20497;-59
2022/12/21 06:29:18;;;;;;;0.00;0.00;;;;;;;7.29;64.00;99155.16;7360151;19;20003;-59
2022/12/21 06:31:43;;;;;;;0.00;0.00;;;;;;;7.25;64.00;99143.22;7361784;19;20029;-60
2022/12/21 06:34:12;;;;;;;0.10;0.10;;;;;;;7.32;64.15;99137.81;7358755;19;20422;-59
2022/12/21 06:36:38;;;;;;;0.00;0.00;;;;;;;7.30;64.30;99137.84;7361043;19;20003;-59
2022/12/21 06:39:03;;;;;;;0.00;0.00;;;;;;;7.24;64.28;99130.25;7357472;19;20006;-59
2022/12/21 06:41:29;;;;;;;0.00;0.00;;;;;;;7.32;64.01;99143.00;7359959;19;20469;-59
2022/12/21 06:43:54;;;;;;;0.10;0.10;;;;;;;7.30;64.21;99137.84;7358704;19;20040;-59
2022/12/21 06:46:20;;;;;;;0.10;0.10;;;;;;;7.31;64.45;99125.72;7360531;19;20034;-59
2022/12/21 06:48:46;;;;;;;0.10;0.10;;;;;;;7.31;64.08;99143.91;7364725;19;19999;-59
2022/12/21 06:51:17;;;;;;;0.00;0.00;;;;;;;7.31;64.45;99131.75;7368461;19;20748;-59
2022/12/21 06:53:44;;;;;;;0.00;0.00;;;;;;;7.26;64.18;99134.50;7364913;19;20003;-59
2022/12/21 06:56:16;;;;;;;0.05;0.05;;;;;;;7.33;64.06;99131.69;7366173;19;20026;-58
2022/12/21 06:58:41;;;;;;;0.10;0.10;;;;;;;7.34;64.16;99143.78;7355125;19;20033;-59
2022/12/21 07:01:12;;;;;;;0.00;0.00;;;;;;;7.37;64.40;99157.50;7367091;19;20561;-59
2022/12/21 07:03:39;;;;;;;0.00;0.00;;;;;;;7.31;64.73;99136.94;7365569;19;20014;-58
2022/12/21 07:06:05;;;;;;;0.00;0.00;;;;;;;7.37;64.21;99157.50;7363664;19;20066;-59
2022/12/21 07:08:31;;;;;;;0.00;0.00;;;;;;;7.39;64.38;99175.63;7363546;19;20429;-59
2022/12/21 07:11:05;;;;;;;0.00;0.00;;;;;;;7.41;64.18;99161.69;7366023;19;22612;-59
2022/12/21 07:13:31;;;;;;;0.00;0.00;;;;;;;7.41;64.57;99153.91;7363625;19;20007;-60
2022/12/21 07:15:58;;;;;;;0.00;0.00;;;;;;;7.41;64.08;99158.25;7363405;19;21323;-59
2022/12/21 07:18:24;;;;;;;0.00;0.00;;;;;;;7.44;64.12;99158.13;7364524;19;20010;-60
2022/12/21 07:20:55;;;;;;;0.00;0.00;;;;;;;7.42;64.25;99155.59;7365155;19;20039;-59
2022/12/21 07:23:20;;;;;;;0.08;0.08;;;;;;;7.42;64.52;99165.16;7357043;19;21073;-59
2022/12/21 07:25:45;;;;;;;0.00;0.00;;;;;;;7.41;64.36;99153.91;7363344;19;21456;-59
2022/12/21 07:28:11;;;;;;;0.00;0.00;;;;;;;7.43;64.05;99157.28;7364374;19;20022;-59
2022/12/21 07:30:36;;;;;;;0.00;0.00;;;;;;;7.43;64.06;99162.47;7362258;19;20486;-59
2022/12/21 07:33:02;;;;;;;0.00;0.00;;;;;;;7.42;64.56;99163.41;7362176;19;20078;-59
2022/12/21 07:35:27;;;;;;;0.10;0.10;;;;;;;7.43;64.49;99183.25;7359548;19;20010;-59
2022/12/21 07:37:53;;;;;;;0.00;0.00;;;;;;;7.44;64.42;99179.75;7365252;19;20045;-59
2022/12/21 07:40:18;;;;;;;0.00;0.00;;;;;;;7.41;64.46;99159.09;7360492;19;20018;-60
2022/12/21 07:42:46;;;;;;;0.05;0.05;;;;;;;7.48;64.57;99173.56;7362230;19;20013;-59
2022/12/21 07:45:11;;;;;;;0.10;0.10;;;;;;;7.49;64.66;99188.25;7364159;19;20026;-59
2022/12/21 07:47:37;;;;;;;0.10;0.10;;;;;;;7.48;64.49;99170.97;7364447;19;20014;-60
2022/12/21 07:50:03;;;;;;;0.00;0.00;;;;;;;7.53;64.51;99179.44;7360201;19;20038;-59
2022/12/21 07:52:30;;;;;;;0.08;0.08;;;;;;;7.58;64.47;99196.63;7365678;19;20010;-59
2022/12/21 07:54:56;;;;;;;0.00;0.00;;;;;;;7.59;64.13;99203.50;7361350;19;20672;-57
2022/12/21 07:57:21;;;;;;;0.10;0.10;;;;;;;7.61;64.48;99201.72;7346734;19;20089;-59
2022/12/21 07:59:47;;;;;;;0.10;0.10;;;;;;;7.64;64.04;99201.59;7361968;19;20018;-58
2022/12/21 08:02:12;;;;;;;0.00;0.00;;;;;;;7.66;64.17;99199.81;7361638;19;20010;-59
2022/12/21 08:04:37;;;;;;;0.05;0.05;;;;;;;7.61;63.71;99196.53;7362231;19;20010;-59
2022/12/21 08:07:03;;;;;;;0.05;0.05;;;;;;;7.71;63.85;99197.91;7352051;19;20014;-58
2022/12/21 08:09:28;;;;;;;0.10;0.10;;;;;;;7.76;63.90;99201.19;7357943;19;20039;-58
2022/12/21 08:11:54;;;;;;;0.10;0.10;;;;;;;7.75;64.01;99217.66;7358835;19;20052;-59
2022/12/21 08:14:19;;;;;;;0.10;0.10;;;;;;;7.79;63.54;99216.66;7362251;19;21244;-60
2022/12/21 08:16:45;;;;;;;0.00;0.00;;;;;;;7.77;63.77;99208.94;7365018;19;20087;-59
2022/12/21 08:19:10;;;;;;;0.10;0.10;;;;;;;7.85;63.46;99221.63;7358512;19;20018;-60
2022/12/21 08:21:35;;;;;;;0.10;0.10;;;;;;;7.83;63.69;99233.84;7365376;19;20011;-59
2022/12/21 08:24:01;;;;;;;0.00;0.00;;;;;;;7.86;63.64;99223.34;7364370;19;20010;-60
2022/12/21 08:26:26;;;;;;;0.10;0.10;;;;;;;7.88;63.73;99221.53;7362032;19;20014;-59
2022/12/21 08:28:52;;;;;;;0.00;0.00;;;;;;;7.84;63.52;99213.91;7361756;19;20022;-59
2022/12/21 08:31:19;;;;;;;0.00;0.00;;;;;;;7.91;63.36;99229.25;7361879;19;20018;-60
2022/12/21 08:33:45;;;;;;;0.00;0.00;;;;;;;7.77;63.23;99213.28;7357059;19;21213;-59
2022/12/21 08:36:13;;;;;;;0.05;0.05;;;;;;;7.84;63.26;99219.94;7362118;19;20787;-60
2022/12/21 08:38:39;;;;;;;0.00;0.00;;;;;;;7.91;63.49;99237.03;7362777;19;20011;-59
2022/12/21 08:41:05;;;;;;;0.10;0.10;;;;;;;7.94;63.05;99247.31;7364053;19;20029;-59
2022/12/21 08:43:30;;;;;;;0.10;0.10;;;;;;;7.84;63.16;99225.16;7358415;19;20023;-58
2022/12/21 08:45:56;;;;;;;0.10;0.10;;;;;;;7.95;63.06;99238.59;7366183;19;20014;-60
2022/12/21 08:48:22;;;;;;;0.05;0.05;;;;;;;7.84;62.86;99245.94;7357350;19;20085;-58
2022/12/21 08:50:51;;;;;;;0.00;0.00;;;;;;;7.98;63.37;99263.66;7364461;19;20385;-59
2022/12/21 08:53:17;;;;;;;0.00;0.00;;;;;;;7.97;63.26;99268.00;7360082;19;20006;-60
2022/12/21 08:55:42;;;;;;;0.00;0.00;;;;;;;7.98;63.21;99248.06;7365000;19;20090;-59
2022/12/21 08:58:08;;;;;;;0.00;0.00;;;;;;;7.88;63.08;99250.13;7348630;19;20575;-59
2022/12/21 09:00:33;;;;;;;0.10;0.10;;;;;;;8.00;63.23;99257.47;7363081;19;20030;-59
2022/12/21 09:03:00;;;;;;;0.10;0.10;;;;;;;8.03;63.20;99259.16;7364581;19;20416;-58
2022/12/21 09:05:25;;;;;;;0.00;0.00;;;;;;;8.03;62.85;99248.75;7364769;19;20038;-60
2022/12/21 09:07:51;;;;;;;0.00;0.00;;;;;;;7.98;62.85;99246.31;7362830;19;20520;-59
2022/12/21 09:10:16;;;;;;;0.10;0.10;;;;;;;8.01;62.62;99264.41;7362884;19;20484;-59
2022/12/21 09:12:42;;;;;;;0.00;0.00;;;;;;;8.00;62.71;99262.69;7362117;19;20018;-59
2022/12/21 09:15:08;;;;;;;0.10;0.10;;;;;;;8.03;62.91;99292.94;7364434;19;20010;-58
2022/12/21 09:17:33;;;;;;;0.00;0.00;;;;;;;8.01;63.15;99274.81;7362067;19;20014;-59
2022/12/21 09:19:58;;;;;;;0.08;0.08;;;;;;;8.00;62.63;99267.88;7361498;19;20021;-59
2022/12/21 09:22:25;;;;;;;0.00;0.00;;;;;;;8.00;63.14;99299.06;7362322;19;20695;-59
2022/12/21 09:24:51;;;;;;;0.00;0.00;;;;;;;7.97;62.93;99293.16;7362098;19;20473;-59
2022/12/21 09:27:16;;;;;;;0.00;0.00;;;;;;;7.96;62.87;99297.50;7361920;19;20014;-59
2022/12/21 09:29:42;;;;;;;0.08;0.08;;;;;;;7.99;62.64;99304.34;7363601;19;20026;-59
2022/12/21 09:32:07;;;;;;;0.00;0.00;;;;;;;7.98;62.92;99295.69;7360918;19;20014;-59
2022/12/21 09:34:32;;;;;;;0.00;0.00;;;;;;;7.99;62.91;99302.59;7362978;19;20014;-59
2022/12/21 09:36:59;;;;;;;0.10;0.10;;;;;;;8.00;62.75;99295.63;7359654;19;20434;-58
2022/12/21 09:39:24;;;;;;;0.00;0.00;;;;;;;7.97;62.69;99273.22;7363626;19;20089;-59
2022/12/21 09:42:12;;;;;;;0.00;0.00;;;;;;;8.05;63.12;99280.72;7359896;19;20018;-59
2022/12/21 09:44:46;;;;;;;0.05;0.05;;;;;;;8.04;62.65;99285.06;7362430;19;20038;-58
2022/12/21 09:48:07;;;;;;;0.10;0.10;;;;;;;8.06;62.59;99282.44;7362212;19;20018;-59
2022/12/21 09:50:55;;;;;;;0.00;0.00;;;;;;;8.02;62.83;99271.28;7155600;19;2004436;-60
2022/12/21 09:53:46;;;;;;;0.10;0.10;;;;;;;7.98;62.97;99272.28;7358940;19;20010;-59
2022/12/21 09:56:16;;;;;;;0.03;0.03;;;;;;;7.97;62.79;99273.22;7359658;19;20007;-59
2022/12/21 09:58:43;;;;;;;0.00;0.00;;;;;;;8.07;62.22;99269.38;7361631;19;20885;-60
2022/12/21 10:01:27;;;;;;;0.00;0.00;;;;;;;8.13;62.81;99283.91;7358778;19;20031;-59
2022/12/21 10:04:04;;;;;;;0.00;0.00;;;;;;;8.17;62.91;99295.06;7360257;19;20062;-59
2022/12/21 10:07:04;;;;;;;0.00;0.00;;;;;;;8.26;62.81;99274.78;7363598;19;20492;-58
2022/12/21 10:09:44;;;;;;;0.00;0.00;;;;;;;8.36;62.44;99279.63;7258721;19;2004044;-58
2022/12/21 10:12:18;;;;;;;0.08;0.08;;;;;;;8.46;62.50;99300.06;7362912;19;20044;-60
2022/12/21 10:14:52;;;;;;;0.00;0.00;;;;;;;8.60;62.36;99286.56;7359906;19;20020;-59
2022/12/21 10:17:23;;;;;;;0.00;0.00;;;;;;;8.76;62.74;99279.03;7363257;19;20105;-59
2022/12/21 10:19:55;;;;;;;0.00;0.00;;;;;;;8.91;62.21;99272.38;7360674;19;20026;-60
2022/12/21 10:22:40;;;;;;;0.08;0.08;;;;;;;9.09;61.88;99293.34;7364946;19;20019;-59
2022/12/21 10:25:20;;;;;;;0.00;0.00;;;;;;;9.24;61.23;99301.47;7365200;19;20595;-60
2022/12/21 10:27:51;;;;;;;0.00;0.00;;;;;;;9.34;60.38;99306.25;7368536;19;20486;-59
2022/12/21 10:30:18;;;;;;;0.08;0.08;;;;;;;9.49;60.98;99312.63;7369706;19;20022;-59
2022/12/21 10:32:48;;;;;;;0.00;0.00;;;;;;;9.68;60.97;99319.66;7366727;19;20019;-58
2022/12/21 10:35:25;;;;;;;0.10;0.10;;;;;;;9.76;60.00;99297.59;7368159;19;20018;-58
2022/12/21 10:37:52;;;;;;;0.00;0.00;;;;;;;9.98;58.39;99315.78;7367153;19;20006;-59
2022/12/21 10:40:20;;;;;;;0.00;0.00;;;;;;;10.02;58.70;99301.69;7365347;19;20007;-59
2022/12/21 10:42:49;;;;;;;0.03;0.03;;;;;;;10.21;58.53;99311.34;7361615;19;20876;-59
2022/12/21 10:45:16;;;;;;;0.00;0.00;;;;;;;10.28;57.81;99320.63;7365746;19;20083;-59
2022/12/21 10:47:44;;;;;;;0.00;0.00;;;;;;;10.37;58.13;99328.91;7367896;19;20018;-60
2022/12/21 10:50:19;;;;;;;0.00;0.00;;;;;;;10.56;58.70;99317.66;7368572;19;20019;-59
2022/12/21 10:52:50;;;;;;;0.00;0.00;;;;;;;10.67;57.80;99315.41;7366215;19;20414;-60
2022/12/21 10:55:18;;;;;;;0.03;0.03;;;;;;;10.78;56.94;99312.31;7366537;19;20695;-60
2022/12/21 10:57:51;;;;;;;0.00;0.00;;;;;;;10.83;56.95;99315.56;7364284;19;20010;-60
2022/12/21 11:00:23;;;;;;;0.00;0.00;;;;;;;10.86;56.41;99300.59;7366826;19;20022;-59
2022/12/21 11:02:50;;;;;;;0.03;0.03;;;;;;;10.77;56.49;99302.78;7367685;19;20098;-59
2022/12/21 11:05:31;;;;;;;0.00;0.00;;;;;;;10.84;57.02;99312.88;7367281;19;20018;-59
2022/12/21 11:08:10;;;;;;;0.00;0.00;;;;;;;10.81;57.46;99307.81;7364831;19;20571;-59
2022/12/21 11:10:36;;;;;;;0.10;0.10;;;;;;;10.81;56.96;99313.03;7367303;19;20022;-60
2022/12/21 11:13:05;;;;;;;0.08;0.08;;;;;;;10.86;56.63;99304.97;7367530;19;20023;-60
2022/12/21 11:15:31;;;;;;;0.00;0.00;;;;;;;10.97;56.51;99307.09;7366738;19;20022;-59
2022/12/21 11:17:56;;;;;;;0.10;0.10;;;;;;;11.04;56.26;99304.09;7368405;19;20577;-60
2022/12/21 11:20:24;;;;;;;0.10;0.10;;;;;;;11.15;56.27;99294.03;7364333;19;20014;-60
2022/12/21 11:22:50;;;;;;;;;;;;;;;11.37;57.52;99325.19;7367194;19;20007;-59
2022/12/21 11:25:19;;;;;;;0.10;0.10;;;;;;;11.46;56.26;99300.38;7364670;19;19925;-59
2022/12/21 11:27:46;;;;;;;0.10;0.10;;;;;;;11.56;56.17;99317.31;7364183;19;20015;-59
2022/12/21 11:30:22;;;;;;;0.10;0.10;;;;;;;11.69;56.29;99302.69;7365192;19;20085;-60
2022/12/21 11:32:49;;;;;;;0.10;0.10;;;;;;;11.81;55.88;99300.38;7365940;19;20009;-60
2022/12/21 11:35:23;;;;;;;0.00;0.00;;;;;;;12.06;56.21;99306.09;7366739;19;20013;-59
2022/12/21 11:37:53;;;;;;;0.10;0.10;;;;;;;12.20;55.92;99310.63;7364115;19;20014;-59
2022/12/21 11:40:24;;;;;;;0.00;0.00;;;;;;;12.33;55.31;99329.19;7364297;19;20487;-59
2022/12/21 11:43:14;;;;;;;0.10;0.10;;;;;;;12.48;55.57;99323.16;7367299;19;20014;-59
2022/12/21 11:45:52;;;;;;;0.00;0.00;;;;;;;12.60;54.04;99312.03;7367191;19;20014;-60
2022/12/21 11:48:40;;;;;;;0.00;0.00;;;;;;;12.66;53.68;99314.31;7363463;19;20033;-60
2022/12/21 11:51:26;;;;;;;0.00;0.00;;;;;;;12.65;54.90;99304.75;7366892;19;20029;-59
2022/12/21 11:54:15;;;;;;;0.00;0.00;;;;;;;12.88;53.99;99307.94;7366566;19;20029;-60
2022/12/21 11:56:58;;;;;;;0.10;0.10;;;;;;;13.03;54.54;99299.25;7362174;19;20086;-59
2022/12/21 11:59:42;;;;;;;0.00;0.00;;;;;;;13.14;54.07;99312.59;7364940;19;20018;-59
2022/12/21 12:02:28;;;;;;;0.00;0.00;;;;;;;13.20;53.36;99320.09;7366948;19;20078;-59
2022/12/21 12:05:15;;;;;;;0.00;0.00;;;;;;;13.28;53.49;99313.59;7364298;19;20402;-60
2022/12/21 12:07:43;;;;;;;0.10;0.10;;;;;;;13.39;52.27;99298.16;7365613;19;20009;-59
2022/12/21 12:10:40;;;;;;;0.10;0.10;;;;;;;13.55;53.31;99296.34;7361612;19;20017;-58
2022/12/21 12:13:33;;;;;;;0.00;0.00;;;;;;;13.70;52.99;99294.59;7264790;19;2004519;-59